Flight Track Log - Related Links

Times and Time Zones

All times are in EDT time to prevent confusion due to time zone crossing. See the N939DL flight status page for this flight to view local times or setup timezone preferences in your user account.

Time Position Orientation Groundspeed Altitude Reporting Facility
EDT Latitude Longitude Course Direction KTS MPH feet Rate Location/Type
Mon 10:20:15 AM 33.6372 -84.3972 91° East  Level FlightAware Approximate
Mon 10:21:28 AM 33.6353 -84.2808 91° East 336 387 4,300  Level Atlanta Center
Mon 10:22:28 AM 33.6333 -84.1886 90° East 290 334 7,300 2,800 Climbing Atlanta Center
Mon 10:23:28 AM 33.6336 -84.0886 103° East 316 364 9,900 2,000 Climbing Atlanta Center
Mon 10:24:28 AM 33.6128 -83.9839 103° East 316 364 11,300 1,700 Climbing Atlanta Center
Mon 10:25:28 AM 33.5894 -83.8617 102° East 352 405 13,300 2,000 Climbing Atlanta Center
Mon 10:26:28 AM 33.5683 -83.7422 97° East 378 435 15,300 2,083 Climbing Atlanta Center
Mon 10:27:29 AM 33.5533 -83.6050 82° East 401 461 17,500 2,050 Climbing Atlanta Center
Mon 10:28:28 AM 33.5694 -83.4678 82° East 407 468 19,400 1,714 Climbing Atlanta Center
Mon 10:29:28 AM 33.5856 -83.3206 82° East 431 496 20,900 1,500 Climbing Atlanta Center
Mon 10:30:28 AM 33.6033 -83.1683 82° East 448 516 22,400 1,500 Climbing Atlanta Center
Mon 10:31:28 AM 33.6208 -83.0136 84° East 467 537 23,900 1,650 Climbing Atlanta Center
Mon 10:32:28 AM 33.6342 -82.8586 82° East 467 537 25,700 1,750 Climbing Atlanta Center
Mon 10:33:28 AM 33.6533 -82.6886 83° East 467 537 27,400 1,500 Climbing Atlanta Center
Mon 10:34:28 AM 33.6703 -82.5311 82° East 467 537 28,700 800 Climbing Atlanta Center
Mon 10:35:28 AM 33.6869 -82.3786 85° East 467 537 29,000 150 Climbing Atlanta Center
Mon 10:36:28 AM 33.6975 -82.2386 81° East 467 537 29,000  Level Atlanta Center
Mon 10:37:28 AM 33.7181 -82.0733 80° East 462 532 29,000  Level Atlanta Center
Mon 10:39:21 AM 33.7586 -81.8008 77° East 488 562 29,000  Level Jacksonville Center
Mon 10:40:22 AM 33.7864 -81.6506 55° Northeast 470 541 29,000  Level Jacksonville Center
Mon 10:41:22 AM 33.8583 -81.5244 52° Northeast 450 518 29,000  Level Jacksonville Center
Mon 10:42:22 AM 33.9361 -81.4056 54° Northeast 445 512 29,000  Level Jacksonville Center
Mon 10:43:22 AM 34.0078 -81.2867 52° Northeast 445 512 29,000  Level Jacksonville Center
Mon 10:44:22 AM 34.0856 -81.1675 52° Northeast 445 512 29,000  Level Jacksonville Center
Mon 10:45:22 AM 34.1650 -81.0456 53° Northeast 445 512 29,000  Level Jacksonville Center
Mon 10:46:22 AM 34.2406 -80.9258 53° Northeast 445 512 29,000 -750 Level Jacksonville Center
Mon 10:47:22 AM 34.3156 -80.8033 53° Northeast 425 489 27,500 -1,850 Descending Jacksonville Center
Mon 10:48:22 AM 34.3847 -80.6936 52° Northeast 425 489 25,300 -1,950 Descending Jacksonville Center
Mon 10:49:22 AM 34.4578 -80.5783 53° Northeast 430 495 23,600 -1,200 Descending Jacksonville Center
Mon 10:50:22 AM 34.5306 -80.4606 53° Northeast 422 486 22,900 -592 Descending Jacksonville Center
Mon 10:51:54 AM 34.6322 -80.2942 53° Northeast 410 472 22,100 -632 Descending Washington Center
Mon 10:52:54 AM 34.6967 -80.1894 53° Northeast 403 464 21,300 -545 Descending Washington Center
Mon 10:53:55 AM 34.7636 -80.0794 42° Northeast 397 457 21,000 -149 Descending Washington Center
Mon 10:54:55 AM 34.8461 -79.9903 40° Northeast 392 451 21,000  Level Washington Center
Mon 10:55:53 AM 34.9264 -79.9086 37° Northeast 381 438 21,000  Level Washington Center
Mon 10:56:54 AM 35.0147 -79.8272 35° Northeast 381 438 21,000 -148 Level Washington Center
Mon 10:57:55 AM 35.1031 -79.7506 37° Northeast 386 444 20,700 -1,109 Descending Washington Center
Mon 10:58:53 AM 35.1872 -79.6736 36° Northeast 386 444 18,800 -1,957 Descending Washington Center
Mon 10:59:27 AM 35.2303 -79.6350 35° Northeast 386 444 17,700 -2,114 Descending Washington Center
Mon 11:00:21 AM 35.3119 -79.5653 38° Northeast 380 437 15,700 -2,455 Descending Washington Center
Mon 11:00:55 AM 35.3550 -79.5242 38° Northeast 376 433 14,100 -2,804 Descending Washington Center
Mon 11:01:53 AM 35.4389 -79.4442 39° Northeast 376 433 11,400 -1,576 Descending Washington Center
Mon 11:02:53 AM 35.5164 -79.3661 54° Northeast 365 420 11,000 -347 Descending Washington Center
Mon 11:03:54 AM 35.5628 -79.2867 54° Northeast 331 381 10,700 -443 Descending Washington Center
Mon 11:04:55 AM 35.6133 -79.1997 55° Northeast 311 358 10,100 -353 Descending Washington Center
Mon 11:05:53 AM 35.6664 -79.1047 55° Northeast 306 352 10,000 -51 Descending Washington Center
Mon 11:06:53 AM 35.7125 -79.0225 59° Northeast 296 341 10,000 -452 Level Washington Center
Mon 11:07:26 AM 35.7347 -78.9775 45° Northeast 296 341 9,300 -1,395 Descending Washington Center
Mon 11:08:19 AM 35.7867 -78.9131 15° North 287 330 8,000 -876 Descending Washington Center
Mon 11:08:55 AM 35.8286 -78.8994 15° North 277 319 8,000 -347 Level Washington Center
Mon 11:10:20 AM 35.9383 -78.8631 35° Northeast 282 325 7,300 -980 Descending Washington Center
Mon 11:11:22 AM 36.0044 -78.8067 44° Northeast 284 327 5,600 -1,770 Descending Washington Center
Mon 11:12:22 AM 36.0606 -78.7394 71° East 283 326 3,700 -1,289 Descending Washington Center
Mon 11:13:23 AM 36.0811 -78.6658 152° Southeast 240 276 3,000 -344 Descending Washington Center
Mon 11:14:24 AM 36.0361 -78.6358 205° Southwest 202 232 3,000  Level Washington Center
Mon 11:15:24 AM 35.9894 -78.6622 225° Southwest 194 223 3,000 -400 Level Washington Center
Mon 11:16:24 AM 35.9550 -78.7044 223° Southwest 179 206 2,200 -843 Descending Washington Center
Mon 11:17:25 AM 35.9228 -78.7417 225° Southwest 152 175 1,300 -836 Descending Washington Center
Mon 11:18:26 AM 35.8925 -78.7789 225° Southwest 147 169 500 -787 Descending Washington Center

Login

Don't have an account? Register now (free) for customized features, flight alerts, and more!